Time;durP1;ratioP1;P1;durP2;ratioP2;P2;SDS_P1;SDS_P2;PMS_P1;PMS_P2;Temp;Humidity;BMP_temperature;BMP_pressure;BME280_temperature;BME280_humidity;BME280_pressure;Samples;Min_cycle;Max_cycle;Signal;HPM_P1;HPM_P2
2024/03/15 00:00:01;;;;;;;4.78;2.97;;;;;;;7.24;100.00;92711.63;2102609;28;20153;-82
2024/03/15 00:01:02;;;;;;;3.72;2.38;;;;;;;7.23;100.00;92718.09;2095871;28;20024;-86
2024/03/15 00:02:04;;;;;;;4.13;2.40;;;;;;;7.27;100.00;92714.22;2109764;28;20019;-83
2024/03/15 00:03:05;;;;;;;4.32;2.72;;;;;;;7.31;100.00;92714.16;2113947;28;20038;-82
2024/03/15 00:04:06;;;;;;;6.53;2.60;;;;;;;7.28;100.00;92710.41;2111377;28;20039;-86
2024/03/15 00:05:09;;;;;;;4.75;2.90;;;;;;;7.09;100.00;92711.09;2095830;28;20044;-83
2024/03/15 00:06:13;;;;;;;4.93;2.70;;;;;;;7.25;100.00;92705.91;2098876;28;20487;-82
2024/03/15 00:07:14;;;;;;;3.20;2.40;;;;;;;7.26;100.00;92712.72;2110232;27;20039;-85
2024/03/15 00:08:16;;;;;;;3.28;2.60;;;;;;;7.29;100.00;92703.94;2113936;28;20383;-85
2024/03/15 00:09:17;;;;;;;3.78;2.50;;;;;;;7.23;100.00;92710.13;2107502;28;20410;-84
2024/03/15 00:10:18;;;;;;;3.97;2.65;;;;;;;7.25;100.00;92708.56;2094889;28;20025;-83
2024/03/15 00:11:19;;;;;;;4.10;2.75;;;;;;;7.27;100.00;92705.50;2089197;28;20032;-84
2024/03/15 00:12:20;;;;;;;3.83;2.83;;;;;;;7.25;100.00;92700.59;2103655;28;20052;-83
2024/03/15 00:13:21;;;;;;;5.43;3.28;;;;;;;7.20;100.00;92706.38;2097202;28;20024;-85
2024/03/15 00:14:22;;;;;;;3.67;2.70;;;;;;;7.17;100.00;92704.50;2105449;28;20031;-84
2024/03/15 00:15:25;;;;;;;5.72;4.00;;;;;;;7.19;100.00;92696.88;2105571;28;20038;-84
2024/03/15 00:16:28;;;;;;;3.90;2.90;;;;;;;7.19;100.00;92698.78;2114204;28;20076;-88
2024/03/15 00:17:29;;;;;;;3.50;2.60;;;;;;;7.13;100.00;92698.50;2108708;28;20078;-83
2024/03/15 00:18:33;;;;;;;5.60;3.13;;;;;;;7.24;100.00;92700.97;2114617;28;20023;-85
2024/03/15 00:19:34;;;;;;;3.80;2.50;;;;;;;7.19;100.00;92707.50;2106468;28;20376;-82
2024/03/15 00:20:35;;;;;;;4.30;2.50;;;;;;;7.22;100.00;92700.66;2097529;28;20439;-84
2024/03/15 00:21:36;;;;;;;4.70;3.05;;;;;;;7.16;100.00;92699.63;2097444;28;20111;-84
2024/03/15 00:22:37;;;;;;;4.35;2.90;;;;;;;7.20;100.00;92693.09;2105927;28;20024;-83
2024/03/15 00:23:38;;;;;;;6.07;2.97;;;;;;;6.99;100.00;92702.13;2105972;28;20028;-84
2024/03/15 00:24:39;;;;;;;7.53;3.33;;;;;;;7.06;100.00;92696.69;2105385;28;20050;-88
2024/03/15 00:25:41;;;;;;;4.82;3.05;;;;;;;6.97;100.00;92699.09;2106010;28;20036;-82
2024/03/15 00:26:42;;;;;;;4.30;3.08;;;;;;;7.16;100.00;92697.72;2108006;28;20028;-84
2024/03/15 00:27:43;;;;;;;4.22;2.72;;;;;;;6.96;100.00;92694.97;2094345;28;20036;-87
2024/03/15 00:28:45;;;;;;;6.20;3.30;;;;;;;6.98;100.00;92700.63;2090151;28;20092;-85
2024/03/15 00:29:46;;;;;;;4.65;2.65;;;;;;;6.91;100.00;92698.06;2093750;28;20036;-87
2024/03/15 00:30:49;;;;;;;3.65;3.00;;;;;;;6.79;100.00;92698.63;2094421;28;20409;-87
2024/03/15 00:31:50;;;;;;;4.32;2.90;;;;;;;6.76;100.00;92694.88;2105964;28;20028;-84
2024/03/15 00:32:52;;;;;;;5.30;3.05;;;;;;;6.69;100.00;92704.84;2106996;28;20031;-86
2024/03/15 00:33:53;;;;;;;3.55;2.85;;;;;;;6.74;100.00;92693.75;2104660;28;20120;-83
2024/03/15 00:34:54;;;;;;;4.28;2.72;;;;;;;6.71;100.00;92695.31;2104536;28;20480;-83
2024/03/15 00:35:55;;;;;;;5.30;2.90;;;;;;;6.68;100.00;92690.81;2095546;28;20192;-85
2024/03/15 00:36:56;;;;;;;4.70;2.90;;;;;;;6.71;100.00;92697.97;2095991;28;20467;-84
2024/03/15 00:37:57;;;;;;;5.57;2.97;;;;;;;6.72;100.00;92694.19;2106731;28;20055;-85
2024/03/15 00:38:58;;;;;;;4.35;2.83;;;;;;;6.82;100.00;92693.25;2098438;28;20025;-88
2024/03/15 00:39:59;;;;;;;5.15;2.70;;;;;;;6.69;100.00;92697.63;2085442;28;20082;-85
2024/03/15 00:41:00;;;;;;;4.63;3.20;;;;;;;6.59;100.00;92700.44;2098580;28;20025;-87
2024/03/15 00:42:02;;;;;;;5.00;2.80;;;;;;;6.63;100.00;92691.28;2114046;28;20464;-83
2024/03/15 00:43:03;;;;;;;7.28;3.13;;;;;;;6.60;100.00;92692.06;2098752;28;20042;-86
2024/03/15 00:44:05;;;;;;;5.32;2.92;;;;;;;6.71;100.00;92699.88;2090326;28;20024;-87
2024/03/15 00:45:06;;;;;;;4.18;2.63;;;;;;;6.75;100.00;92693.34;2106710;28;20024;-84
2024/03/15 00:46:07;;;;;;;5.80;2.72;;;;;;;6.83;100.00;92688.69;2106774;28;20039;-84
2024/03/15 00:47:08;;;;;;;3.97;2.55;;;;;;;6.77;100.00;92691.06;2090098;28;20516;-84
2024/03/15 00:48:09;;;;;;;4.43;2.88;;;;;;;6.71;100.00;92681.28;2106692;28;20024;-85
2024/03/15 00:49:13;;;;;;;4.32;2.85;;;;;;;6.55;100.00;92689.88;2106835;28;20427;-83
2024/03/15 00:50:14;;;;;;;4.60;2.45;;;;;;;6.73;100.00;92686.97;2106054;28;20024;-83
2024/03/15 00:51:15;;;;;;;5.75;2.60;;;;;;;6.61;100.00;92687.50;2104103;28;20020;-86
2024/03/15 00:52:17;;;;;;;4.70;3.13;;;;;;;6.55;100.00;92684.56;2092539;28;20035;-83
2024/03/15 00:53:18;;;;;;;6.68;2.92;;;;;;;6.60;100.00;92686.75;2098799;28;20035;-86
2024/03/15 00:54:19;;;;;;;3.22;2.70;;;;;;;6.51;100.00;92689.16;2114071;28;20050;-84
2024/03/15 00:55:30;;;;;;;4.30;2.90;;;;;;;6.55;100.00;92685.31;2106573;28;20019;-83
2024/03/15 00:56:31;;;;;;;4.35;2.67;;;;;;;6.65;100.00;92682.91;2112856;28;20031;-85
2024/03/15 00:57:32;;;;;;;5.43;2.78;;;;;;;6.65;100.00;92685.56;2111846;28;20058;-85
2024/03/15 00:58:33;;;;;;;4.18;2.20;;;;;;;6.74;100.00;92686.53;2103370;28;20032;-82
2024/03/15 00:59:34;;;;;;;3.95;2.50;;;;;;;6.73;100.00;92681.66;2098275;28;20442;-85
2024/03/15 01:00:35;;;;;;;5.35;2.55;;;;;;;6.81;100.00;92685.72;2108800;28;20019;-82
2024/03/15 01:01:38;;;;;;;2.63;2.42;;;;;;;6.84;100.00;92684.88;2109549;28;20059;-83
2024/03/15 01:02:39;;;;;;;3.70;2.22;;;;;;;6.86;100.00;92681.84;2098426;28;20032;-82
2024/03/15 01:03:41;;;;;;;4.70;2.10;;;;;;;6.72;100.00;92677.50;2098446;28;20112;-82
2024/03/15 01:04:42;;;;;;;4.05;2.20;;;;;;;6.64;100.00;92684.81;2100161;28;20703;-84
2024/03/15 01:05:44;;;;;;;3.60;2.35;;;;;;;6.69;100.00;92680.94;2096559;28;20037;-84
2024/03/15 01:06:47;;;;;;;2.45;2.25;;;;;;;6.87;100.00;92681.44;2098232;28;20017;-81
2024/03/15 01:07:48;;;;;;;3.47;2.00;;;;;;;6.78;100.00;92683.84;2104763;28;20117;-81
2024/03/15 01:08:51;;;;;;;3.33;2.13;;;;;;;6.86;100.00;92679.19;2090225;28;20359;-82
2024/03/15 01:09:52;;;;;;;3.30;2.50;;;;;;;6.87;100.00;92678.03;2082333;28;20045;-81
2024/03/15 01:10:53;;;;;;;8.32;2.50;;;;;;;6.78;100.00;92678.53;2090312;28;20029;-84
2024/03/15 01:11:54;;;;;;;3.55;2.05;;;;;;;6.78;100.00;92681.19;2090182;28;20163;-84
2024/03/15 01:12:55;;;;;;;3.80;2.60;;;;;;;6.75;100.00;92681.97;2098368;28;20144;-82
2024/03/15 01:13:58;;;;;;;4.00;2.40;;;;;;;6.57;100.00;92675.03;2098515;28;20369;-83
2024/03/15 01:14:59;;;;;;;2.72;2.08;;;;;;;6.63;100.00;92677.22;2098541;28;20485;-83
2024/03/15 01:16:00;;;;;;;3.22;2.15;;;;;;;6.79;100.00;92672.81;2089994;28;20016;-82
2024/03/15 01:17:01;;;;;;;2.78;2.05;;;;;;;6.82;100.00;92679.25;2082827;28;20044;-81
2024/03/15 01:18:03;;;;;;;4.50;2.20;;;;;;;6.79;100.00;92674.72;2093098;28;20484;-84
2024/03/15 01:19:04;;;;;;;6.63;2.10;;;;;;;6.80;100.00;92678.88;2094539;28;20025;-85
2024/03/15 01:20:07;;;;;;;3.35;2.40;;;;;;;6.69;100.00;92671.06;2094424;28;20107;-82
2024/03/15 01:21:08;;;;;;;4.38;2.38;;;;;;;6.63;100.00;92679.88;2095077;28;20372;-85
2024/03/15 01:22:09;;;;;;;2.97;2.08;;;;;;;6.74;100.00;92672.53;2102950;28;20035;-83
2024/03/15 01:23:10;;;;;;;4.40;2.10;;;;;;;6.92;100.00;92677.56;2106475;28;20024;-84
2024/03/15 01:24:14;;;;;;;3.17;2.00;;;;;;;6.82;100.00;92673.91;2090072;28;20382;-81
2024/03/15 01:25:15;;;;;;;3.13;1.67;;;;;;;6.85;100.00;92667.03;2091903;28;20056;-86
2024/03/15 01:26:16;;;;;;;2.58;2.10;;;;;;;6.79;100.00;92680.03;2097978;28;20086;-84
2024/03/15 01:27:17;;;;;;;3.55;2.15;;;;;;;6.96;100.00;92672.94;2111546;28;20485;-83
2024/03/15 01:28:17;;;;;;;2.70;1.73;;;;;;;6.93;100.00;92671.84;2114870;28;20028;-84
2024/03/15 01:29:18;;;;;;;3.95;2.13;;;;;;;6.98;100.00;92673.28;2113394;28;20046;-81
2024/03/15 01:30:19;;;;;;;3.53;1.85;;;;;;;6.96;100.00;92673.69;2113696;28;20122;-87
2024/03/15 01:31:20;;;;;;;2.33;1.80;;;;;;;6.92;100.00;92658.97;2106283;28;20112;-84
2024/03/15 01:32:22;;;;;;;2.03;1.80;;;;;;;6.89;100.00;92665.09;2097715;28;20094;-87
2024/03/15 01:33:23;;;;;;;2.25;1.85;;;;;;;6.89;100.00;92671.16;2096487;28;20032;-84
2024/03/15 01:34:24;;;;;;;2.97;2.03;;;;;;;6.99;100.00;92664.94;2098678;28;20028;-83
2024/03/15 01:35:34;;;;;;;2.63;1.70;;;;;;;6.98;100.00;92673.28;2103780;28;20073;-88
2024/03/15 01:36:35;;;;;;;2.22;1.80;;;;;;;6.75;100.00;92666.78;2100717;27;20106;-85
2024/03/15 01:37:40;;;;;;;3.55;1.88;;;;;;;6.65;100.00;92667.72;2110917;28;20468;-81
2024/03/15 01:38:41;;;;;;;4.07;2.00;;;;;;;6.82;100.00;92668.59;2098995;28;20032;-82
2024/03/15 01:39:42;;;;;;;2.05;1.85;;;;;;;6.80;100.00;92660.28;2097985;28;20496;-85
2024/03/15 01:40:43;;;;;;;2.08;1.80;;;;;;;6.89;100.00;92665.09;2100370;27;20027;-83
2024/03/15 01:41:44;;;;;;;3.55;1.83;;;;;;;6.64;100.00;92660.91;2114142;28;20020;-81
2024/03/15 01:42:46;;;;;;;3.15;2.00;;;;;;;6.79;100.00;92656.13;2104569;28;20381;-86
2024/03/15 01:43:50;;;;;;;3.08;1.60;;;;;;;6.81;100.00;92659.88;2089810;28;20036;-86
2024/03/15 01:44:55;;;;;;;2.38;1.70;;;;;;;6.82;100.00;92657.97;2100626;28;20031;-82
2024/03/15 01:45:56;;;;;;;6.65;1.90;;;;;;;6.81;100.00;92659.16;2098454;28;20424;-81
2024/03/15 01:46:59;;;;;;;2.85;1.70;;;;;;;6.87;100.00;92657.53;2100936;28;20020;-84
2024/03/15 01:48:00;;;;;;;5.07;1.60;;;;;;;6.92;100.00;92664.28;2123084;27;20440;-84
2024/03/15 01:49:01;;;;;;;1.70;1.60;;;;;;;6.87;100.00;92656.78;2119328;27;20023;-85
2024/03/15 01:50:06;;;;;;;3.15;1.55;;;;;;;6.84;100.00;92647.69;2106376;28;20022;-84
2024/03/15 01:51:08;;;;;;;1.50;1.40;;;;;;;6.81;100.00;92654.59;2106840;28;20456;-86
2024/03/15 01:52:09;;;;;;;2.50;1.70;;;;;;;6.96;100.00;92654.34;2106362;28;20032;-83
2024/03/15 01:53:10;;;;;;;2.40;1.60;;;;;;;6.89;100.00;92659.75;2098063;28;20020;-84
2024/03/15 01:54:11;;;;;;;2.60;1.65;;;;;;;6.91;100.00;92647.59;2098327;28;20046;-86
2024/03/15 01:55:12;;;;;;;1.58;1.48;;;;;;;6.95;100.00;92658.91;2111080;28;20027;-85
2024/03/15 01:56:13;;;;;;;2.13;1.80;;;;;;;6.93;100.00;92650.59;2112049;28;20068;-82
2024/03/15 01:57:15;;;;;;;3.75;1.60;;;;;;;6.92;100.00;92651.00;2098169;28;20020;-81
2024/03/15 01:58:16;;;;;;;2.13;1.83;;;;;;;6.91;100.00;92650.25;2112504;27;20816;-81
2024/03/15 01:59:17;;;;;;;3.10;1.92;;;;;;;6.89;100.00;92647.25;2115036;28;20023;-83
2024/03/15 02:00:20;;;;;;;1.83;1.52;;;;;;;6.77;100.00;92648.56;2098376;28;20025;-82
2024/03/15 02:01:21;;;;;;;2.67;1.75;;;;;;;6.84;100.00;92653.00;2097868;28;20122;-84
2024/03/15 02:02:22;;;;;;;1.55;1.45;;;;;;;6.90;100.00;92648.75;2097252;28;20107;-84
2024/03/15 02:03:23;;;;;;;1.42;1.33;;;;;;;6.88;100.00;92645.75;2098186;28;20033;-85
2024/03/15 02:04:24;;;;;;;4.35;1.55;;;;;;;6.63;100.00;92643.47;2112301;28;20024;-82
2024/03/15 02:05:25;;;;;;;2.63;1.90;;;;;;;6.97;100.00;92648.63;2114527;28;20400;-85
2024/03/15 02:06:26;;;;;;;2.13;1.73;;;;;;;6.88;100.00;92652.97;2104406;28;20044;-87
2024/03/15 02:07:27;;;;;;;6.47;1.90;;;;;;;6.69;100.00;92647.16;2112745;28;20023;-84
2024/03/15 02:08:28;;;;;;;2.33;1.60;;;;;;;6.75;100.00;92652.78;2102674;28;20422;-84
2024/03/15 02:09:30;;;;;;;4.30;1.80;;;;;;;6.83;100.00;92651.50;2113748;28;20024;-84
2024/03/15 02:10:31;;;;;;;3.60;1.73;;;;;;;6.74;100.00;92648.63;2114376;28;20422;-84
2024/03/15 02:11:32;;;;;;;3.38;1.42;;;;;;;6.77;100.00;92647.81;2097654;28;20504;-85
2024/03/15 02:12:34;;;;;;;1.75;1.30;;;;;;;6.77;100.00;92647.81;2089523;28;20036;-85
2024/03/15 02:13:35;;;;;;;2.38;1.55;;;;;;;6.68;100.00;92644.91;2089625;28;20039;-84
2024/03/15 02:14:36;;;;;;;2.17;1.50;;;;;;;6.80;100.00;92649.66;2097595;28;20067;-83
2024/03/15 02:15:37;;;;;;;2.28;1.42;;;;;;;6.78;100.00;92644.00;2089565;28;20481;-87
2024/03/15 02:16:38;;;;;;;3.05;1.50;;;;;;;6.77;100.00;92645.16;2094123;28;20559;-89
2024/03/15 02:17:42;;;;;;;2.42;1.70;;;;;;;6.79;100.00;92648.91;2097650;28;20021;-89
2024/03/15 02:18:43;;;;;;;2.00;1.60;;;;;;;6.77;100.00;92650.47;2106245;27;20024;-85
2024/03/15 02:19:44;;;;;;;1.88;1.50;;;;;;;6.81;100.00;92648.53;2114492;28;20034;-85
2024/03/15 02:20:46;;;;;;;1.92;1.50;;;;;;;6.84;100.00;92652.25;2105816;28;20020;-82
2024/03/15 02:21:50;;;;;;;1.70;1.60;;;;;;;6.79;100.00;92646.25;2106534;28;20031;-84
2024/03/15 02:22:51;;;;;;;1.92;1.50;;;;;;;6.61;100.00;92648.41;2099848;28;20077;-89
2024/03/15 02:23:52;;;;;;;2.45;1.60;;;;;;;6.69;100.00;92649.81;2105958;28;20077;-83
2024/03/15 02:24:53;;;;;;;2.30;1.50;;;;;;;6.73;100.00;92652.44;2105852;28;20446;-85
2024/03/15 02:27:14;;;;;;;;;;;;;;;5.42;100.00;92660.81;2141889;27;20534;-84
2024/03/15 02:28:15;;;;;;;2.80;1.52;;;;;;;5.58;100.00;92653.09;2130118;27;19912;-85
2024/03/15 02:29:16;;;;;;;2.10;1.35;;;;;;;5.64;100.00;92653.41;2112996;28;20439;-87
2024/03/15 02:30:18;;;;;;;2.45;1.40;;;;;;;5.65;100.00;92658.31;2111328;28;20409;-86
2024/03/15 02:31:21;;;;;;;2.90;1.52;;;;;;;5.62;100.00;92656.47;2112243;27;20114;-82
2024/03/15 02:32:25;;;;;;;2.42;1.60;;;;;;;5.62;100.00;92663.63;2113285;28;20541;-86
2024/03/15 02:33:26;;;;;;;3.92;1.45;;;;;;;5.52;100.00;92662.59;2121641;28;20488;-92
2024/03/15 02:34:27;;;;;;;2.88;1.63;;;;;;;5.39;100.00;92662.34;2105570;28;20073;-86
2024/03/15 02:35:30;;;;;;;3.28;1.55;;;;;;;5.37;100.00;92658.59;2108104;28;20452;-85
2024/03/15 02:36:31;;;;;;;4.15;1.52;;;;;;;5.41;100.00;92660.06;2105015;28;20077;-82
2024/03/15 02:37:33;;;;;;;1.95;1.30;;;;;;;5.52;100.00;92659.94;2103739;28;20506;-82
2024/03/15 02:38:34;;;;;;;3.63;1.67;;;;;;;5.53;100.00;92659.56;2104801;28;20032;-83
2024/03/15 02:39:35;;;;;;;2.13;1.60;;;;;;;5.54;100.00;92660.31;2104420;28;20055;-84
2024/03/15 02:40:36;;;;;;;2.42;1.77;;;;;;;5.58;100.00;92657.63;2104730;28;20031;-84
2024/03/15 02:41:37;;;;;;;1.38;1.27;;;;;;;5.59;100.00;92654.59;2104567;28;20016;-83
2024/03/15 02:42:38;;;;;;;2.40;1.42;;;;;;;5.48;100.00;92662.63;2103796;28;20046;-86
2024/03/15 02:43:42;;;;;;;1.60;1.42;;;;;;;5.61;100.00;92670.84;2104712;28;20173;-83
2024/03/15 02:44:43;;;;;;;4.70;1.52;;;;;;;5.48;100.00;92659.22;2105035;28;20135;-83
2024/03/15 02:45:44;;;;;;;1.85;1.40;;;;;;;5.53;100.00;92662.22;2110128;28;20452;-82
2024/03/15 02:46:45;;;;;;;2.60;1.83;;;;;;;5.53;100.00;92656.94;2121353;28;20127;-84
2024/03/15 02:47:46;;;;;;;2.78;1.55;;;;;;;5.71;100.00;92664.69;2113082;28;20604;-83
2024/03/15 02:48:47;;;;;;;6.82;1.98;;;;;;;5.73;100.00;92659.72;2104629;28;20031;-82
2024/03/15 02:49:49;;;;;;;1.35;1.25;;;;;;;5.68;100.00;92665.47;2104443;28;20020;-81
2024/03/15 02:50:50;;;;;;;4.18;1.70;;;;;;;5.72;100.00;92663.53;2112936;28;20051;-79
2024/03/15 02:51:51;;;;;;;3.08;1.50;;;;;;;5.76;100.00;92658.19;2102494;28;20036;-83
2024/03/15 02:52:52;;;;;;;2.63;1.20;;;;;;;5.68;100.00;92654.13;2104888;28;20032;-84
2024/03/15 02:53:54;;;;;;;1.60;1.40;;;;;;;5.62;100.00;92655.69;2113183;27;20038;-82
2024/03/15 02:54:56;;;;;;;4.03;1.50;;;;;;;5.56;100.00;92671.28;2111778;28;20107;-89
2024/03/15 02:56:00;;;;;;;1.27;1.17;;;;;;;5.50;100.00;92662.25;2104809;28;20023;-81
2024/03/15 02:57:01;;;;;;;1.90;1.45;;;;;;;5.54;100.00;92661.06;2104334;28;20059;-81
2024/03/15 02:58:03;;;;;;;2.35;1.48;;;;;;;5.52;100.00;92660.69;2112932;28;20030;-79
2024/03/15 02:59:07;;;;;;;1.30;1.20;;;;;;;5.44;100.00;92659.25;2113203;27;20023;-81
2024/03/15 03:00:08;;;;;;;2.38;1.95;;;;;;;5.47;100.00;92658.47;2121667;27;20447;-84
2024/03/15 03:01:09;;;;;;;2.42;1.38;;;;;;;5.55;100.00;92653.88;2121442;27;20109;-83
2024/03/15 03:02:10;;;;;;;2.72;1.50;;;;;;;5.58;100.00;92658.38;2112808;28;20416;-84
2024/03/15 03:03:12;;;;;;;2.20;1.65;;;;;;;5.61;100.00;92662.13;2112706;28;20036;-81
2024/03/15 03:04:13;;;;;;;1.85;1.45;;;;;;;5.52;100.00;92666.00;2112698;28;20046;-82
2024/03/15 03:05:14;;;;;;;2.58;1.30;;;;;;;5.53;100.00;92666.75;2113082;27;20031;-84
2024/03/15 03:06:15;;;;;;;2.83;1.70;;;;;;;5.61;100.00;92668.19;2112809;28;20031;-84
2024/03/15 03:07:16;;;;;;;2.13;1.50;;;;;;;5.60;100.00;92663.28;2103475;28;20024;-84
2024/03/15 03:08:17;;;;;;;3.30;1.92;;;;;;;5.60;100.00;92663.28;2104504;28;20492;-84
2024/03/15 03:09:19;;;;;;;2.22;1.73;;;;;;;5.69;100.00;92666.97;2112693;28;20421;-84
2024/03/15 03:10:20;;;;;;;2.05;1.70;;;;;;;5.71;100.00;92662.03;2104460;28;20028;-83
2024/03/15 03:11:21;;;;;;;2.08;1.42;;;;;;;5.93;100.00;92659.94;2098606;28;20839;-84
2024/03/15 03:12:22;;;;;;;2.25;1.80;;;;;;;5.75;100.00;92664.63;2112895;27;20815;-85
2024/03/15 03:13:23;;;;;;;3.17;1.80;;;;;;;5.85;100.00;92660.38;2129827;27;20157;-86
2024/03/15 03:14:25;;;;;;;2.60;1.80;;;;;;;5.80;100.00;92656.25;2121041;28;20129;-83
2024/03/15 03:15:26;;;;;;;2.95;1.85;;;;;;;5.76;100.00;92664.25;2112484;28;20438;-86
2024/03/15 03:16:27;;;;;;;1.60;1.50;;;;;;;5.82;100.00;92667.97;2112820;27;20024;-86
2024/03/15 03:17:28;;;;;;;5.07;1.90;;;;;;;6.01;100.00;92669.31;2129667;27;20022;-82
2024/03/15 03:18:31;;;;;;;4.97;2.03;;;;;;;5.95;100.00;92665.56;2121382;28;20376;-85
2024/03/15 03:19:32;;;;;;;3.00;1.80;;;;;;;5.89;100.00;92669.78;2103842;28;20032;-87
2024/03/15 03:20:33;;;;;;;2.35;2.00;;;;;;;5.92;100.00;92671.66;2095991;28;20477;-83
2024/03/15 03:21:34;;;;;;;3.42;1.70;;;;;;;5.82;100.00;92675.16;2104419;28;20024;-84
2024/03/15 03:22:35;;;;;;;2.13;1.52;;;;;;;5.77;100.00;92679.00;2104097;28;20028;-86
2024/03/15 03:23:37;;;;;;;1.95;1.58;;;;;;;5.83;100.00;92674.00;2096057;28;20029;-82
2024/03/15 03:24:37;;;;;;;2.58;1.50;;;;;;;5.73;100.00;92669.59;2104369;28;20102;-82
2024/03/15 03:25:39;;;;;;;2.88;1.40;;;;;;;6.15;100.00;92680.91;2108351;28;20032;-80
2024/03/15 03:26:39;;;;;;;1.70;1.60;;;;;;;6.08;100.00;92683.63;2097153;28;20090;-83
2024/03/15 03:27:41;;;;;;;2.85;1.58;;;;;;;5.96;100.00;92677.69;1987009;28;23780;-81
2024/03/15 03:28:42;;;;;;;2.35;1.27;;;;;;;5.82;100.00;92678.56;2061953;27;20614;-82
2024/03/15 03:29:43;;;;;;;3.30;1.70;;;;;;;5.95;100.00;92676.19;2023565;28;20047;-81
2024/03/15 03:30:46;;;;;;;2.00;1.63;;;;;;;6.01;100.00;92682.56;1982693;28;20035;-80
2024/03/15 03:31:47;;;;;;;1.70;1.60;;;;;;;5.98;100.00;92686.00;1998162;27;20128;-80
2024/03/15 03:32:49;;;;;;;1.92;1.42;;;;;;;5.91;100.00;92686.06;1986807;28;22798;-80
2024/03/15 03:33:50;;;;;;;1.63;1.42;;;;;;;5.97;100.00;92694.34;2033197;27;21893;-81
2024/03/15 03:34:51;;;;;;;2.90;1.73;;;;;;;5.98;100.00;92686.00;2060887;27;20185;-81
2024/03/15 03:35:52;;;;;;;3.45;1.70;;;;;;;6.04;100.00;92684.41;2055897;28;20028;-80
2024/03/15 03:36:54;;;;;;;2.47;1.85;;;;;;;5.98;100.00;92683.34;2055882;28;20108;-83
2024/03/15 03:37:55;;;;;;;2.95;2.03;;;;;;;6.08;100.00;92683.63;2094369;28;21108;-83
2024/03/15 03:38:56;;;;;;;4.35;2.17;;;;;;;5.99;100.00;92684.84;2097643;28;20058;-82
2024/03/15 03:39:59;;;;;;;5.18;2.30;;;;;;;5.92;100.00;92681.53;2107538;27;20024;-84
2024/03/15 03:41:00;;;;;;;5.88;2.40;;;;;;;5.92;100.00;92687.56;2107073;28;20024;-83
2024/03/15 03:42:04;;;;;;;4.75;2.40;;;;;;;5.79;100.00;92694.50;2090740;28;20150;-84
2024/03/15 03:43:05;;;;;;;3.67;2.28;;;;;;;5.90;100.00;92695.16;2105809;28;20491;-80
2024/03/15 03:44:06;;;;;;;2.85;2.30;;;;;;;5.93;100.00;92696.31;2103497;28;20062;-80
2024/03/15 03:45:15;;;;;;;3.03;2.33;;;;;;;6.30;100.00;92690.94;2080394;28;20020;-83
2024/03/15 03:46:18;;;;;;;3.40;2.75;;;;;;;6.41;100.00;92696.13;2081437;28;20037;-83
2024/03/15 03:47:19;;;;;;;4.35;3.40;;;;;;;6.50;100.00;92687.66;2093349;27;20043;-84
2024/03/15 03:48:20;;;;;;;5.22;2.90;;;;;;;6.43;100.00;92695.72;2096893;27;20038;-82
2024/03/15 03:49:21;;;;;;;4.20;3.00;;;;;;;6.22;100.00;92704.69;2072148;28;20131;-81
2024/03/15 03:50:22;;;;;;;6.63;3.15;;;;;;;6.25;100.00;92698.59;2084386;28;20333;-82
2024/03/15 03:51:23;;;;;;;4.95;3.13;;;;;;;6.21;100.00;92700.53;2089306;28;20462;-83
2024/03/15 03:52:24;;;;;;;3.38;3.00;;;;;;;6.60;100.00;92705.34;1979651;28;22254;-80
2024/03/15 03:53:25;;;;;;;4.82;3.00;;;;;;;6.64;100.00;92706.03;1930999;28;20024;-83
2024/03/15 03:54:26;;;;;;;4.10;3.28;;;;;;;6.84;100.00;92708.03;1983617;28;20078;-79
2024/03/15 03:55:27;;;;;;;4.05;2.90;;;;;;;6.92;100.00;92702.22;1951363;28;20113;-82
2024/03/15 03:56:29;;;;;;;6.97;3.47;;;;;;;6.84;100.00;92700.81;1898241;28;20020;-79
2024/03/15 03:57:30;;;;;;;9.07;3.75;;;;;;;6.68;100.00;92701.44;1929840;27;20035;-78
2024/03/15 03:58:31;;;;;;;4.82;3.28;;;;;;;6.72;100.00;92698.75;1955204;28;22943;-82
2024/03/15 03:59:32;;;;;;;4.03;3.20;;;;;;;7.09;100.00;92707.69;1897724;28;22310;-79
2024/03/15 04:00:34;;;;;;;4.63;2.92;;;;;;;6.85;100.00;92712.19;1863480;28;20095;-79
2024/03/15 04:01:35;;;;;;;7.78;3.25;;;;;;;6.72;100.00;92706.72;1837808;28;22880;-79
2024/03/15 04:02:36;;;;;;;5.75;3.50;;;;;;;6.54;100.00;92707.69;1817914;28;20028;-81
2024/03/15 04:03:37;;;;;;;6.22;3.38;;;;;;;6.61;100.00;92706.09;1806215;28;20030;-80
2024/03/15 04:04:39;;;;;;;4.05;3.20;;;;;;;6.59;100.00;92716.38;1802416;28;22897;-81
2024/03/15 04:05:42;;;;;;;5.85;3.50;;;;;;;6.54;100.00;92717.53;1830726;28;20116;-79
2024/03/15 04:06:49;;;;;;;4.95;3.33;;;;;;;6.56;100.00;92709.94;1815722;28;20071;-80
2024/03/15 04:07:50;;;;;;;4.32;3.10;;;;;;;6.62;100.00;92707.59;1845365;28;20164;-80
2024/03/15 04:08:51;;;;;;;5.78;3.33;;;;;;;6.53;100.00;92708.81;1852518;28;20950;-81
2024/03/15 04:09:52;;;;;;;5.25;3.33;;;;;;;6.50;100.00;92699.03;1860887;28;21435;-80
2024/03/15 04:10:53;;;;;;;4.57;2.90;;;;;;;6.44;100.00;92700.59;1895098;28;20031;-79
2024/03/15 04:11:54;;;;;;;4.32;3.28;;;;;;;6.45;100.00;92704.00;1889384;27;20166;-80
2024/03/15 04:12:56;;;;;;;6.65;3.58;;;;;;;6.33;100.00;92715.19;1907878;28;21011;-81
2024/03/15 04:13:58;;;;;;;5.72;3.45;;;;;;;6.35;100.00;92705.66;1888008;27;21323;-82
2024/03/15 04:15:01;;;;;;;4.32;3.08;;;;;;;6.33;100.00;92702.66;1870121;27;20024;-82
2024/03/15 04:16:04;;;;;;;4.55;3.17;;;;;;;6.27;100.00;92712.94;1877157;28;20057;-79
2024/03/15 04:17:05;;;;;;;6.40;3.33;;;;;;;6.27;100.00;92717.50;1830278;28;20039;-81
2024/03/15 04:18:06;;;;;;;4.22;3.05;;;;;;;6.37;100.00;92705.28;1857678;28;20170;-80
2024/03/15 04:19:09;;;;;;;5.40;3.60;;;;;;;6.38;100.00;92707.53;1854143;28;21933;-80
2024/03/15 04:20:15;;;;;;;4.82;3.10;;;;;;;6.46;100.00;92705.53;1872030;28;21378;-82
2024/03/15 04:21:17;;;;;;;3.92;2.95;;;;;;;6.54;100.00;92699.72;1865995;28;20035;-81
2024/03/15 04:22:21;;;;;;;4.72;3.70;;;;;;;6.49;100.00;92702.81;1838142;28;23109;-81
2024/03/15 04:23:22;;;;;;;4.93;3.42;;;;;;;6.53;100.00;92692.91;1845972;28;20771;-83
2024/03/15 04:24:23;;;;;;;3.20;2.90;;;;;;;6.54;100.00;92693.66;1914837;28;20044;-82
2024/03/15 04:25:25;;;;;;;5.38;3.50;;;;;;;6.40;100.00;92693.84;2069084;28;20573;-80
2024/03/15 04:26:28;;;;;;;9.05;3.97;;;;;;;6.44;100.00;92694.56;2073231;28;20045;-80
2024/03/15 04:27:29;;;;;;;3.85;3.20;;;;;;;6.40;100.00;92693.84;2054346;27;20028;-84
2024/03/15 04:28:30;;;;;;;6.65;3.15;;;;;;;6.42;100.00;92702.91;2030203;28;20028;-83
2024/03/15 04:29:30;;;;;;;5.40;3.63;;;;;;;6.41;100.00;92698.00;2038103;28;20062;-84
2024/03/15 04:30:31;;;;;;;5.20;3.00;;;;;;;6.40;100.00;92701.81;2043942;28;20078;-81
2024/03/15 04:31:32;;;;;;;4.15;3.38;;;;;;;6.45;100.00;92702.13;2044536;28;20055;-82
2024/03/15 04:32:34;;;;;;;3.65;2.88;;;;;;;6.39;100.00;92706.38;2049057;28;20180;-80
2024/03/15 04:33:35;;;;;;;5.32;2.97;;;;;;;6.38;100.00;92704.88;2055751;28;20037;-81
2024/03/15 04:34:37;;;;;;;3.88;2.85;;;;;;;6.38;100.00;92710.19;2071141;28;21707;-81
2024/03/15 04:35:39;;;;;;;5.05;3.10;;;;;;;6.37;100.00;92714.00;2085463;28;20134;-85
2024/03/15 04:36:42;;;;;;;3.85;3.20;;;;;;;6.31;100.00;92712.91;2084040;28;20369;-82
2024/03/15 04:37:44;;;;;;;5.13;3.33;;;;;;;6.32;100.00;92706.44;2106813;28;20497;-82
2024/03/15 04:38:45;;;;;;;3.65;3.28;;;;;;;6.26;100.00;92708.03;2103055;28;20042;-82
2024/03/15 04:39:46;;;;;;;3.83;2.95;;;;;;;6.25;100.00;92699.34;2098320;28;20477;-81
2024/03/15 04:40:46;;;;;;;4.95;3.42;;;;;;;6.29;100.00;92694.00;2106450;28;20027;-85
2024/03/15 04:41:47;;;;;;;4.85;3.13;;;;;;;6.36;100.00;92701.84;2106404;28;20020;-82
2024/03/15 04:42:48;;;;;;;5.90;3.40;;;;;;;6.36;100.00;92687.81;2106423;28;20024;-81
2024/03/15 04:43:49;;;;;;;4.95;3.10;;;;;;;6.24;100.00;92697.84;2105816;28;20027;-80
2024/03/15 04:44:51;;;;;;;3.83;3.28;;;;;;;6.25;100.00;92699.34;2115010;28;20024;-86
2024/03/15 04:45:52;;;;;;;3.40;3.10;;;;;;;6.16;100.00;92700.97;2114961;28;20035;-82
2024/03/15 04:46:54;;;;;;;4.43;3.05;;;;;;;6.26;100.00;92700.84;2098058;28;20020;-81
2024/03/15 04:47:56;;;;;;;4.43;3.38;;;;;;;6.21;100.00;92708.50;2098211;28;20037;-85
2024/03/15 04:48:57;;;;;;;3.42;3.10;;;;;;;6.27;100.00;92697.03;2098223;28;20035;-87
2024/03/15 04:49:58;;;;;;;3.17;2.88;;;;;;;6.25;100.00;92704.63;2097340;28;20458;-82
2024/03/15 04:51:00;;;;;;;3.08;2.70;;;;;;;6.14;100.00;92697.94;2106213;28;20036;-81